Time;durP1;ratioP1;P1;durP2;ratioP2;P2;SDS_P1;SDS_P2;PMS_P1;PMS_P2;Temp;Humidity;BMP_temperature;BMP_pressure;BME280_temperature;BME280_humidity;BME280_pressure;Samples;Min_cycle;Max_cycle;Signal;HPM_P1;HPM_P2
2021/05/30 00:03:20;;;;;;;;;;;10.30;99.90;;;;;;10572489;27;20202;-70
2021/05/30 00:08:22;;;;;;;;;;;10.30;99.90;;;;;;10591067;27;20014;-70
2021/05/30 00:13:24;;;;;;;;;;;10.20;99.90;;;;;;10568011;27;20410;-70
2021/05/30 00:18:26;;;;;;;;;;;9.90;99.90;;;;;;10570062;28;19932;-70
2021/05/30 00:23:28;;;;;;;;;;;9.90;99.90;;;;;;10570696;28;19934;-70
2021/05/30 00:28:29;;;;;;;;;;;9.80;99.90;;;;;;10570900;28;20014;-70
2021/05/30 00:33:31;;;;;;;;;;;9.70;99.90;;;;;;10569486;28;19923;-69
2021/05/30 00:38:33;;;;;;;;;;;9.60;99.90;;;;;;10574690;27;19924;-70
2021/05/30 00:43:48;;;;;;;;;;;9.40;99.90;;;;;;10570212;28;20018;-70
2021/05/30 00:48:50;;;;;;;;;;;9.40;99.90;;;;;;10567729;28;20010;-70
2021/05/30 00:53:52;;;;;;;;;;;9.00;99.90;;;;;;10571066;28;20391;-70
2021/05/30 00:58:53;;;;;;;;;;;9.00;99.90;;;;;;10570165;28;20010;-70
2021/05/30 01:03:55;;;;;;;;;;;9.00;99.90;;;;;;10552581;28;19985;-70
2021/05/30 01:08:59;;;;;;;;;;;9.00;99.90;;;;;;10570343;28;19924;-70
2021/05/30 01:14:01;;;;;;;;;;;9.00;99.90;;;;;;10570507;28;19923;-70
2021/05/30 01:19:05;;;;;;;;;;;9.00;99.90;;;;;;10569312;28;19930;-70
2021/05/30 01:24:07;;;;;;;;;;;8.80;99.90;;;;;;10570120;28;19924;-70
2021/05/30 01:29:09;;;;;;;;;;;8.80;99.90;;;;;;10568859;28;20031;-70
2021/05/30 01:34:10;;;;;;;;;;;8.80;99.90;;;;;;10571079;28;19923;-69
2021/05/30 01:39:12;;;;;;;;;;;8.70;99.90;;;;;;10569456;28;19930;-70
2021/05/30 01:44:14;;;;;;;;;;;8.40;99.90;;;;;;10569222;28;19932;-70
2021/05/30 01:49:16;;;;;;;;;;;8.50;99.90;;;;;;10569286;28;20010;-70
2021/05/30 01:54:19;;;;;;;;;;;8.50;99.90;;;;;;10567438;28;19928;-70
2021/05/30 01:59:22;;;;;;;;;;;8.40;99.90;;;;;;10568217;28;19924;-70
2021/05/30 02:04:28;;;;;;;;;;;8.30;99.90;;;;;;10539352;28;19930;-70
2021/05/30 02:09:30;;;;;;;;;;;8.30;99.90;;;;;;10575606;28;19967;-70
2021/05/30 02:14:33;;;;;;;;;;;8.10;99.90;;;;;;10579109;28;19938;-70
2021/05/30 02:19:34;;;;;;;;;;;8.00;99.90;;;;;;10583013;28;20444;-68
2021/05/30 02:28:18;;;;;;;;;;;7.90;99.90;;;;;;10615533;27;19923;-71
2021/05/30 02:33:19;;;;;;;;;;;7.90;99.90;;;;;;10615662;27;20068;-71
2021/05/30 02:38:21;;;;;;;;;;;7.80;99.90;;;;;;10586948;27;20387;-71
2021/05/30 02:43:23;;;;;;;;;;;7.70;99.90;;;;;;10573472;28;19931;-71
2021/05/30 02:48:25;;;;;;;;;;;7.60;99.90;;;;;;10599627;27;20022;-71
2021/05/30 02:53:28;;;;;;;;;;;7.40;99.90;;;;;;10615039;27;19930;-71
2021/05/30 02:58:31;;;;;;;;;;;7.50;99.90;;;;;;10586287;27;20390;-71
2021/05/30 03:03:32;;;;;;;;;;;7.30;99.90;;;;;;10569194;28;19924;-72
2021/05/30 03:08:34;;;;;;;;;;;7.30;99.90;;;;;;10594541;28;19938;-72
2021/05/30 03:13:36;;;;;;;;;;;7.40;99.90;;;;;;10606919;27;19923;-71
2021/05/30 03:18:38;;;;;;;;;;;7.20;99.90;;;;;;10577744;28;20018;-71
2021/05/30 03:23:40;;;;;;;;;;;7.20;99.90;;;;;;10564239;28;20019;-71
2021/05/30 03:28:41;;;;;;;;;;;7.30;99.90;;;;;;10563805;28;19924;-72
2021/05/30 03:33:43;;;;;;;;;;;7.40;99.90;;;;;;10564265;28;19924;-71
2021/05/30 03:38:45;;;;;;;;;;;7.30;99.90;;;;;;10568053;28;19932;-71
2021/05/30 03:43:47;;;;;;;;;;;7.30;99.90;;;;;;10577647;28;20022;-70
2021/05/30 03:48:49;;;;;;;;;;;7.30;99.90;;;;;;10548992;27;19924;-69
2021/05/30 03:53:51;;;;;;;;;;;7.10;99.90;;;;;;10534332;28;19934;-68
2021/05/30 03:58:52;;;;;;;;;;;7.20;99.90;;;;;;10563082;28;19924;-69
2021/05/30 04:03:54;;;;;;;;;;;7.50;99.90;;;;;;10577018;28;19923;-69
2021/05/30 04:08:56;;;;;;;;;;;7.70;99.90;;;;;;10546946;28;20026;-69
2021/05/30 04:13:58;;;;;;;;;;;7.70;99.90;;;;;;10533803;28;20397;-69
2021/05/30 04:18:59;;;;;;;;;;;8.50;99.90;;;;;;10553882;28;20402;-69
2021/05/30 04:24:01;;;;;;;;;;;11.50;99.90;;;;;;10533175;28;19935;-69
2021/05/30 04:29:04;;;;;;;;;;;14.00;99.90;;;;;;10562156;28;19924;-69
2021/05/30 04:34:06;;;;;;;;;;;16.40;98.70;;;;;;10574352;28;19928;-70
2021/05/30 04:39:08;;;;;;;;;;;17.80;85.50;;;;;;10572955;28;19924;-70
2021/05/30 04:44:10;;;;;;;;;;;18.70;76.50;;;;;;10537236;28;20380;-70
2021/05/30 04:49:11;;;;;;;;;;;20.40;66.10;;;;;;10561366;28;20282;-70
2021/05/30 04:54:13;;;;;;;;;;;20.90;60.40;;;;;;10574372;28;19928;-70
2021/05/30 04:59:15;;;;;;;;;;;21.50;58.40;;;;;;10572875;27;19935;-70
2021/05/30 05:04:17;;;;;;;;;;;21.70;56.10;;;;;;10573367;28;20015;-70
2021/05/30 05:09:18;;;;;;;;;;;22.20;55.20;;;;;;10545445;28;20015;-70
2021/05/30 05:14:20;;;;;;;;;;;23.10;52.10;;;;;;10531181;28;20356;-71
2021/05/30 05:19:22;;;;;;;;;;;24.40;48.90;;;;;;10549823;28;19928;-71
2021/05/30 05:24:24;;;;;;;;;;;25.20;46.80;;;;;;10531115;28;20133;-71
2021/05/30 05:29:25;;;;;;;;;;;24.80;46.30;;;;;;10560396;28;19927;-71
2021/05/30 05:34:27;;;;;;;;;;;20.80;50.60;;;;;;10571796;28;19924;-71
2021/05/30 05:39:29;;;;;;;;;;;17.90;56.70;;;;;;10553444;28;19935;-70
2021/05/30 05:44:31;;;;;;;;;;;15.90;62.20;;;;;;10562204;28;19938;-70
2021/05/30 05:49:35;;;;;;;;;;;14.80;69.20;;;;;;10572660;28;19927;-70
2021/05/30 05:54:37;;;;;;;;;;;14.20;76.30;;;;;;10539918;28;19923;-70
2021/05/30 05:59:39;;;;;;;;;;;13.90;81.60;;;;;;10530084;28;19931;-69
2021/05/30 06:04:44;;;;;;;;;;;13.60;90.70;;;;;;10561347;28;19923;-69
2021/05/30 06:09:45;;;;;;;;;;;13.30;95.20;;;;;;10572181;28;19932;-69
2021/05/30 06:14:47;;;;;;;;;;;13.30;99.00;;;;;;10538678;28;19955;-69
2021/05/30 06:19:49;;;;;;;;;;;13.00;99.90;;;;;;10528243;28;20022;-68
2021/05/30 06:24:51;;;;;;;;;;;13.10;99.90;;;;;;10529211;28;20379;-69
2021/05/30 06:29:52;;;;;;;;;;;12.70;99.90;;;;;;10529435;28;19959;-68
2021/05/30 06:34:54;;;;;;;;;;;12.50;99.90;;;;;;10562033;28;19946;-69
2021/05/30 06:39:56;;;;;;;;;;;12.80;99.90;;;;;;10570810;28;20393;-68
2021/05/30 06:44:58;;;;;;;;;;;13.20;99.90;;;;;;10537159;28;19941;-69
2021/05/30 06:49:59;;;;;;;;;;;13.50;99.90;;;;;;10529647;28;19951;-68
2021/05/30 06:55:02;;;;;;;;;;;13.40;99.90;;;;;;10562399;28;19946;-69
2021/05/30 07:00:04;;;;;;;;;;;13.50;99.90;;;;;;10570991;28;20014;-69
2021/05/30 07:05:06;;;;;;;;;;;13.60;99.90;;;;;;10536185;28;19950;-69
2021/05/30 07:10:08;;;;;;;;;;;13.80;99.90;;;;;;10528575;28;19930;-69
2021/05/30 07:15:11;;;;;;;;;;;14.00;99.90;;;;;;10536317;28;19931;-68
2021/05/30 07:20:13;;;;;;;;;;;14.50;99.90;;;;;;10540048;28;19924;-69
2021/05/30 07:25:15;;;;;;;;;;;15.30;99.90;;;;;;10535239;28;19924;-69
2021/05/30 07:30:17;;;;;;;;;;;16.60;98.20;;;;;;10536040;28;20426;-70
2021/05/30 07:35:19;;;;;;;;;;;18.30;91.30;;;;;;10535239;28;20371;-69
2021/05/30 07:40:21;;;;;;;;;;;20.00;78.20;;;;;;10536166;28;20007;-70
2021/05/30 07:45:23;;;;;;;;;;;20.50;67.50;;;;;;10533987;28;20372;-70
2021/05/30 07:50:25;;;;;;;;;;;20.50;66.50;;;;;;10554578;28;19928;-70
2021/05/30 07:55:27;;;;;;;;;;;20.70;61.60;;;;;;10577053;28;19950;-70
2021/05/30 08:00:29;;;;;;;;;;;20.90;59.40;;;;;;10556641;28;20299;-71
2021/05/30 08:05:31;;;;;;;;;;;21.20;58.30;;;;;;10534594;28;20019;-73
2021/05/30 08:10:33;;;;;;;;;;;20.70;58.20;;;;;;10554779;28;20018;-70
2021/05/30 08:15:35;;;;;;;;;;;21.30;56.90;;;;;;10564309;28;19924;-71
2021/05/30 08:20:37;;;;;;;;;;;21.90;54.80;;;;;;10534142;28;19924;-71
2021/05/30 08:25:39;;;;;;;;;;;21.70;55.20;;;;;;10542077;28;19926;-71
2021/05/30 08:30:41;;;;;;;;;;;21.50;55.40;;;;;;10556584;28;20020;-71
2021/05/30 08:35:43;;;;;;;;;;;21.70;55.00;;;;;;10543846;28;20283;-71
2021/05/30 08:40:55;;;;;;;;;;;21.60;54.10;;;;;;10542251;28;19946;-71
2021/05/30 08:45:57;;;;;;;;;;;21.70;53.60;;;;;;10532218;28;19924;-71
2021/05/30 08:51:03;;;;;;;;;;;21.70;55.00;;;;;;10563988;28;19924;-71
2021/05/30 08:56:06;;;;;;;;;;;21.70;53.40;;;;;;10573221;28;19974;-71
2021/05/30 09:01:07;;;;;;;;;;;22.00;53.00;;;;;;10544707;28;20354;-71
2021/05/30 09:06:17;;;;;;;;;;;22.10;50.60;;;;;;10531886;28;20496;-71
2021/05/30 09:11:38;;;;;;;;;;;21.80;52.60;;;;;;10565126;28;19924;-71
2021/05/30 09:16:52;;;;;;;;;;;22.00;51.10;;;;;;10572005;28;20333;-71
2021/05/30 09:22:12;;;;;;;;;;;22.00;49.20;;;;;;10543648;28;20332;-71
2021/05/30 09:27:14;;;;;;;;;;;21.00;50.60;;;;;;10573322;28;19930;-71
2021/05/30 09:32:16;;;;;;;;;;;21.40;49.90;;;;;;10530896;28;20291;-71
2021/05/30 09:37:18;;;;;;;;;;;21.20;50.60;;;;;;10530028;28;19924;-71
2021/05/30 09:42:22;;;;;;;;;;;21.30;50.40;;;;;;10570700;28;20219;-71
2021/05/30 09:47:33;;;;;;;;;;;21.50;50.90;;;;;;10572316;28;19947;-71
2021/05/30 09:52:36;;;;;;;;;;;21.60;49.00;;;;;;10489297;28;20316;-71
2021/05/30 09:57:38;;;;;;;;;;;21.60;48.70;;;;;;10488183;28;19998;-70
2021/05/30 10:02:40;;;;;;;;;;;21.90;48.30;;;;;;10488310;28;20399;-71
2021/05/30 10:07:43;;;;;;;;;;;21.90;49.00;;;;;;10489240;28;19947;-71
2021/05/30 10:12:45;;;;;;;;;;;22.30;47.70;;;;;;10571296;28;19934;-71
2021/05/30 10:17:48;;;;;;;;;;;22.20;47.50;;;;;;10570477;28;19928;-71
2021/05/30 10:22:54;;;;;;;;;;;22.80;46.40;;;;;;10529402;28;20020;-71
2021/05/30 10:28:07;;;;;;;;;;;22.50;46.30;;;;;;10529081;28;20391;-71
2021/05/30 10:33:09;;;;;;;;;;;22.70;47.60;;;;;;10545523;28;20023;-71
2021/05/30 10:38:11;;;;;;;;;;;22.60;44.80;;;;;;10531537;28;20410;-71
2021/05/30 10:43:14;;;;;;;;;;;21.50;41.90;;;;;;10526948;28;19924;-71
2021/05/30 10:48:19;;;;;;;;;;;21.30;45.60;;;;;;10553030;28;19928;-71
2021/05/30 10:53:40;;;;;;;;;;;21.40;45.70;;;;;;10540266;28;19979;-71
2021/05/30 10:58:43;;;;;;;;;;;20.90;44.30;;;;;;10557134;28;20458;-71
2021/05/30 11:03:53;;;;;;;;;;;21.20;44.50;;;;;;10570162;28;19932;-71
2021/05/30 11:08:55;;;;;;;;;;;21.40;45.90;;;;;;10558318;28;19932;-70
2021/05/30 11:13:58;;;;;;;;;;;21.20;45.80;;;;;;10553519;27;19928;-70
2021/05/30 11:19:08;;;;;;;;;;;21.00;45.10;;;;;;10533476;28;20022;-70
2021/05/30 11:24:12;;;;;;;;;;;21.20;46.10;;;;;;10529534;28;19924;-70
2021/05/30 11:29:18;;;;;;;;;;;21.40;45.20;;;;;;10576662;27;19927;-70
2021/05/30 11:34:20;;;;;;;;;;;21.20;44.00;;;;;;10575319;28;20018;-70
2021/05/30 11:39:22;;;;;;;;;;;21.30;46.10;;;;;;10562708;28;19928;-70
2021/05/30 11:44:25;;;;;;;;;;;21.20;45.20;;;;;;10557669;28;19924;-70
2021/05/30 11:49:34;;;;;;;;;;;21.30;45.90;;;;;;10563539;28;20437;-70
2021/05/30 11:54:42;;;;;;;;;;;21.70;44.90;;;;;;10549907;28;19928;-70
2021/05/30 12:00:00;;;;;;;;;;;21.80;43.10;;;;;;10532463;28;19928;-70
2021/05/30 12:05:02;;;;;;;;;;;22.00;44.70;;;;;;10561913;28;19975;-70
2021/05/30 12:10:09;;;;;;;;;;;22.00;44.60;;;;;;10574681;28;19958;-70
2021/05/30 12:15:15;;;;;;;;;;;21.70;44.10;;;;;;10574321;28;20030;-70
2021/05/30 12:20:19;;;;;;;;;;;21.90;45.10;;;;;;10540280;28;19961;-70
2021/05/30 12:25:20;;;;;;;;;;;21.90;42.80;;;;;;10531359;28;19928;-70
2021/05/30 12:30:22;;;;;;;;;;;21.70;45.20;;;;;;10535825;28;19924;-70
2021/05/30 12:35:43;;;;;;;;;;;21.50;44.10;;;;;;10541807;28;19928;-70
2021/05/30 12:40:45;;;;;;;;;;;20.80;42.90;;;;;;10548650;28;20145;-70
2021/05/30 12:45:59;;;;;;;;;;;21.00;43.00;;;;;;10573689;28;19932;-70
2021/05/30 12:51:10;;;;;;;;;;;21.30;45.70;;;;;;10550738;28;19924;-70
2021/05/30 12:56:19;;;;;;;;;;;21.50;43.00;;;;;;10531468;28;19924;-70
2021/05/30 13:01:24;;;;;;;;;;;21.60;43.60;;;;;;10553622;28;19930;-70
2021/05/30 13:06:25;;;;;;;;;;;21.40;43.80;;;;;;10544077;28;19951;-64
2021/05/30 13:11:31;;;;;;;;;;;21.40;43.80;;;;;;10531082;28;20480;-63
2021/05/30 13:16:33;;;;;;;;;;;21.50;42.30;;;;;;10533602;28;20384;-63
2021/05/30 13:21:35;;;;;;;;;;;21.50;42.40;;;;;;10534381;28;20342;-63
2021/05/30 13:26:51;;;;;;;;;;;21.60;42.40;;;;;;10539260;28;19932;-64
2021/05/30 13:31:53;;;;;;;;;;;21.70;41.20;;;;;;10536976;28;20010;-63
2021/05/30 13:36:55;;;;;;;;;;;21.80;42.80;;;;;;10529774;28;19924;-63
2021/05/30 13:41:57;;;;;;;;;;;21.80;42.10;;;;;;10529529;28;20014;-63
2021/05/30 13:46:58;;;;;;;;;;;21.80;40.70;;;;;;10543501;28;20245;-63
2021/05/30 13:52:00;;;;;;;;;;;21.30;39.30;;;;;;10529598;28;19924;-63
2021/05/30 13:57:02;;;;;;;;;;;21.30;40.70;;;;;;10539805;28;19928;-63
2021/05/30 14:02:04;;;;;;;;;;;21.30;42.70;;;;;;10528661;28;19931;-63
2021/05/30 14:07:06;;;;;;;;;;;21.00;41.10;;;;;;10528698;28;20371;-63
2021/05/30 14:12:08;;;;;;;;;;;20.90;41.50;;;;;;10529168;28;19931;-63
2021/05/30 14:17:10;;;;;;;;;;;21.20;40.00;;;;;;10528632;28;19932;-63
2021/05/30 14:22:12;;;;;;;;;;;21.20;41.70;;;;;;10528904;28;19946;-63
2021/05/30 14:27:14;;;;;;;;;;;20.70;40.50;;;;;;10528335;28;19928;-63
2021/05/30 14:32:15;;;;;;;;;;;20.90;40.80;;;;;;10528819;28;20074;-63
2021/05/30 14:37:17;;;;;;;;;;;21.10;42.60;;;;;;10519259;28;19932;-63
2021/05/30 14:42:19;;;;;;;;;;;21.30;40.90;;;;;;10513642;28;20459;-63
2021/05/30 14:47:21;;;;;;;;;;;21.60;39.80;;;;;;10532861;28;19923;-63
2021/05/30 14:52:23;;;;;;;;;;;21.50;40.40;;;;;;10539855;28;19935;-63
2021/05/30 14:57:25;;;;;;;;;;;21.50;41.80;;;;;;10531874;28;20018;-63
2021/05/30 15:02:26;;;;;;;;;;;21.60;40.40;;;;;;10525763;28;19947;-63
2021/05/30 15:07:28;;;;;;;;;;;21.60;40.20;;;;;;10524507;28;19924;-63
2021/05/30 15:12:30;;;;;;;;;;;21.50;42.30;;;;;;10513339;28;20371;-63
2021/05/30 15:17:34;;;;;;;;;;;21.80;42.20;;;;;;10530812;28;19928;-63
2021/05/30 15:22:36;;;;;;;;;;;22.20;41.70;;;;;;10525673;28;19932;-63
2021/05/30 15:27:38;;;;;;;;;;;22.00;42.70;;;;;;10526829;28;19928;-63
2021/05/30 15:32:39;;;;;;;;;;;21.40;41.60;;;;;;10524203;28;20003;-63
2021/05/30 15:37:42;;;;;;;;;;;21.30;41.40;;;;;;10533530;28;19998;-63
2021/05/30 15:42:44;;;;;;;;;;;21.70;41.10;;;;;;10534890;28;19950;-63
2021/05/30 15:47:46;;;;;;;;;;;21.80;42.60;;;;;;10542064;28;20016;-64
2021/05/30 15:52:48;;;;;;;;;;;21.80;43.40;;;;;;10532093;28;19931;-64
2021/05/30 15:57:50;;;;;;;;;;;21.80;42.30;;;;;;10531900;28;19924;-64
2021/05/30 16:02:52;;;;;;;;;;;21.40;42.90;;;;;;10532052;28;19928;-64
2021/05/30 16:07:57;;;;;;;;;;;21.60;43.20;;;;;;10532062;28;19931;-64
2021/05/30 16:12:58;;;;;;;;;;;21.70;43.60;;;;;;10542607;28;20361;-64
2021/05/30 16:18:00;;;;;;;;;;;21.80;43.70;;;;;;10559846;28;20386;-63
2021/05/30 16:23:03;;;;;;;;;;;21.70;43.20;;;;;;10531002;28;19938;-64
2021/05/30 16:28:05;;;;;;;;;;;22.00;41.40;;;;;;10529714;28;20407;-64
2021/05/30 16:33:06;;;;;;;;;;;21.90;41.10;;;;;;10530618;28;19934;-64
2021/05/30 16:38:08;;;;;;;;;;;21.30;42.70;;;;;;10534673;28;20061;-65
2021/05/30 16:43:10;;;;;;;;;;;21.30;42.90;;;;;;10543853;28;20393;-64
2021/05/30 16:48:12;;;;;;;;;;;21.50;43.60;;;;;;10524119;28;20034;-64
2021/05/30 16:53:16;;;;;;;;;;;21.80;41.20;;;;;;10527239;28;19924;-64
2021/05/30 16:58:17;;;;;;;;;;;21.50;42.00;;;;;;10529007;28;20368;-64
2021/05/30 17:03:20;;;;;;;;;;;21.00;44.00;;;;;;10529283;28;20006;-65
